createdAt,value
2018-08-04T00:00:00.576Z,69.96
2018-08-04T00:01:00.592Z,70.46
2018-08-04T00:02:00.628Z,69.36
2018-08-04T00:03:00.549Z,70.16
2018-08-04T00:04:00.535Z,69.86
2018-08-04T00:05:00.525Z,70.76
2018-08-04T00:06:00.553Z,71.26
2018-08-04T00:07:00.506Z,70.59
2018-08-04T00:08:00.500Z,69.79
2018-08-04T00:09:00.481Z,70.66
2018-08-04T00:10:00.472Z,71.46
2018-08-04T00:11:00.459Z,72.09
2018-08-04T00:12:00.495Z,72.09
2018-08-04T00:13:00.441Z,71.89
2018-08-04T00:14:00.446Z,71.89
2018-08-04T00:15:00.419Z,71.89
2018-08-04T00:16:00.406Z,73.29
2018-08-04T00:17:00.460Z,72.89
2018-08-04T00:18:00.386Z,71.73
2018-08-04T00:19:00.375Z,71.39
2018-08-04T00:20:00.413Z,70.79
2018-08-04T00:21:00.355Z,71.19
2018-08-04T00:22:00.405Z,73.33
2018-08-04T00:23:00.335Z,73.29
2018-08-04T00:24:00.323Z,72.72
2018-08-04T00:25:00.319Z,71.12
2018-08-04T00:26:00.346Z,71.12
2018-08-04T00:27:00.317Z,73.43
2018-08-04T00:28:00.284Z,72.23
2018-08-04T00:29:00.272Z,71.83
2018-08-04T00:30:00.259Z,72.33
2018-08-04T00:31:00.257Z,72.26
2018-08-04T00:32:00.296Z,73.72
2018-08-04T00:33:00.267Z,73.72
2018-08-04T00:34:00.215Z,73.72
2018-08-04T00:35:00.220Z,73.53
2018-08-04T00:36:00.200Z,74.03
2018-08-04T00:37:00.227Z,73.93
2018-08-04T00:38:00.173Z,73.43
2018-08-04T00:39:00.188Z,73.63
2018-08-04T00:40:00.154Z,73.46
2018-08-04T00:41:00.148Z,73.26
2018-08-04T00:42:00.131Z,73.26
2018-08-04T00:43:00.144Z,72.86
2018-08-04T00:44:00.117Z,72.16
2018-08-04T00:45:00.149Z,72.16
2018-08-04T00:46:00.093Z,72.46
2018-08-04T00:47:00.079Z,72.26
2018-08-04T00:48:00.104Z,71.76
2018-08-04T00:49:00.058Z,72.26
2018-08-04T00:50:00.051Z,72.26
2018-08-04T00:51:00.069Z,71.46
2018-08-04T00:52:00.025Z,73.36
2018-08-04T00:53:00.051Z,71.76
2018-08-04T00:54:00.010Z,71.86
2018-08-04T00:54:59.999Z,71.76
2018-08-04T00:55:59.986Z,72.26
2018-08-04T00:56:59.979Z,73.26
2018-08-04T00:58:00.012Z,71.96
2018-08-04T00:58:59.985Z,72.26
2018-08-04T00:59:59.941Z,72.26
2018-08-04T01:00:59.951Z,72.56
2018-08-04T01:01:59.917Z,73.56
2018-08-04T01:02:59.907Z,73.80
2018-08-04T01:03:59.947Z,74.37
2018-08-04T01:04:59.886Z,73.39
2018-08-04T01:05:59.878Z,73.36
2018-08-04T01:06:59.864Z,74.00
2018-08-04T01:07:59.874Z,73.39
2018-08-04T01:08:59.867Z,74.10
2018-08-04T01:09:59.881Z,74.00
2018-08-04T01:10:59.846Z,73.30
2018-08-04T01:11:59.814Z,73.60
2018-08-04T01:12:59.800Z,73.19
2018-08-04T01:13:59.812Z,74.50
2018-08-04T01:14:59.779Z,74.50
2018-08-04T01:15:59.788Z,75.60
2018-08-04T01:16:59.755Z,74.70
2018-08-04T01:17:59.745Z,73.80
2018-08-04T01:18:59.764Z,73.90
2018-08-04T01:19:59.725Z,75.23
2018-08-04T01:20:59.717Z,75.23
2018-08-04T01:21:59.709Z,74.23
2018-08-04T01:22:59.703Z,75.54
2018-08-04T01:23:59.725Z,75.63
2018-08-04T01:24:59.674Z,74.84
2018-08-04T01:25:59.661Z,75.13
2018-08-04T01:26:59.645Z,74.73
2018-08-04T01:27:59.636Z,75.54
2018-08-04T01:28:59.624Z,75.34
2018-08-04T01:29:59.644Z,75.23
2018-08-04T01:30:59.628Z,73.93
2018-08-04T01:31:59.602Z,73.93
2018-08-04T01:32:59.607Z,74.13
2018-08-04T01:33:59.613Z,75.84
2018-08-04T01:34:59.617Z,75.63
2018-08-04T01:35:59.549Z,74.67
2018-08-04T01:36:59.556Z,75.13
2018-08-04T01:37:59.530Z,74.54
2018-08-04T01:38:59.518Z,76.28
2018-08-04T01:39:59.565Z,75.23
2018-08-04T01:40:59.558Z,75.47
2018-08-04T01:41:59.482Z,74.93
2018-08-04T01:42:59.475Z,75.57
2018-08-04T01:43:59.464Z,75.67
2018-08-04T01:44:59.452Z,75.27
2018-08-04T01:45:59.486Z,74.47
2018-08-04T01:46:59.436Z,74.17
2018-08-04T01:47:59.471Z,73.97
2018-08-04T01:48:59.407Z,75.27
2018-08-04T01:49:59.399Z,74.77
2018-08-04T01:50:59.420Z,74.47
2018-08-04T01:51:59.404Z,73.97
2018-08-04T01:52:59.363Z,74.47
2018-08-04T01:53:59.373Z,75.97
2018-08-04T01:54:59.343Z,76.57
2018-08-04T01:55:59.362Z,76.11
2018-08-04T01:56:59.320Z,75.97
2018-08-04T01:57:59.317Z,76.67
2018-08-04T01:58:59.319Z,76.21
2018-08-04T01:59:59.298Z,75.97
2018-08-04T02:00:59.309Z,76.71
2018-08-04T02:01:59.270Z,76.51
2018-08-04T02:02:59.297Z,76.51
2018-08-04T02:03:59.341Z,76.91
2018-08-04T02:04:59.241Z,76.71
2018-08-04T02:05:59.250Z,76.51
2018-08-04T02:06:59.235Z,77.11
2018-08-04T02:07:59.209Z,76.21
2018-08-04T02:08:59.222Z,76.51
2018-08-04T02:09:59.222Z,78.11
2018-08-04T02:10:59.228Z,77.72
2018-08-04T02:11:59.168Z,77.01
2018-08-04T02:12:59.176Z,78.02
2018-08-04T02:13:59.144Z,77.21
2018-08-04T02:14:59.152Z,76.21
2018-08-04T02:15:59.111Z,77.91
2018-08-04T02:16:59.139Z,76.61
2018-08-04T02:17:59.105Z,77.31
2018-08-04T02:18:59.093Z,76.91
2018-08-04T02:19:59.079Z,76.41
2018-08-04T02:20:59.094Z,76.71
2018-08-04T02:21:59.095Z,75.81
2018-08-04T02:22:59.077Z,76.71
2018-08-04T02:23:59.079Z,76.41
2018-08-04T02:24:59.023Z,75.91
2018-08-04T02:25:59.010Z,75.41
2018-08-04T02:26:59.059Z,76.91
2018-08-04T02:27:58.988Z,78.31
2018-08-04T02:28:58.996Z,76.57
2018-08-04T02:29:59.034Z,76.51
2018-08-04T02:30:59.009Z,77.17
2018-08-04T02:31:58.952Z,77.51
2018-08-04T02:32:58.981Z,76.21
2018-08-04T02:33:58.992Z,76.41
2018-08-04T02:34:59.003Z,76.28
2018-08-04T02:35:58.942Z,75.81
2018-08-04T02:36:58.962Z,76.31
2018-08-04T02:37:58.915Z,76.31
2018-08-04T02:38:58.866Z,75.81
2018-08-04T02:39:58.877Z,76.51
2018-08-04T02:40:58.875Z,76.01
2018-08-04T02:41:58.878Z,77.11
2018-08-04T02:42:58.860Z,77.81
2018-08-04T02:43:58.814Z,78.31
2018-08-04T02:44:58.829Z,77.11
2018-08-04T02:45:58.918Z,77.01
2018-08-04T02:46:58.778Z,77.21
2018-08-04T02:47:58.797Z,76.25
2018-08-04T02:48:58.976Z,76.45
2018-08-04T02:49:58.748Z,76.41
2018-08-04T02:50:58.780Z,77.85
2018-08-04T02:51:58.733Z,78.66
2018-08-04T02:52:58.753Z,78.72
2018-08-04T02:53:58.762Z,77.65
2018-08-04T02:54:58.700Z,78.72
2018-08-04T02:55:58.702Z,77.15
2018-08-04T02:56:58.678Z,77.65
2018-08-04T02:57:58.701Z,79.16
2018-08-04T02:58:58.649Z,77.35
2018-08-04T02:59:58.725Z,77.55
2018-08-04T03:00:58.630Z,77.01
2018-08-04T03:01:58.647Z,77.81
2018-08-04T03:02:58.644Z,77.11
2018-08-04T03:03:58.680Z,76.34
2018-08-04T03:04:58.642Z,76.25
2018-08-04T03:05:58.733Z,76.45
2018-08-04T03:06:58.578Z,76.75
2018-08-04T03:07:58.561Z,77.35
2018-08-04T03:08:58.651Z,77.45
2018-08-04T03:09:58.596Z,78.35
2018-08-04T03:10:58.547Z,78.15
2018-08-04T03:11:58.514Z,78.75
2018-08-04T03:12:58.557Z,78.15
2018-08-04T03:13:58.525Z,78.05
2018-08-04T03:14:58.473Z,78.85
2018-08-04T03:15:58.491Z,77.35
2018-08-04T03:16:58.456Z,76.54
2018-08-04T03:17:58.447Z,75.84
2018-08-04T03:18:58.428Z,75.14
2018-08-04T03:19:58.449Z,76.11
2018-08-04T03:20:58.436Z,76.34
2018-08-04T03:21:58.392Z,76.45
2018-08-04T03:22:58.393Z,76.04
2018-08-04T03:23:58.385Z,75.54
2018-08-04T03:24:58.420Z,75.84
2018-08-04T03:25:58.384Z,76.04
2018-08-04T03:26:58.362Z,76.65
2018-08-04T03:27:58.348Z,76.65
2018-08-04T03:28:58.321Z,77.75
2018-08-04T03:29:58.355Z,78.25
2018-08-04T03:30:58.298Z,76.85
2018-08-04T03:31:58.291Z,77.45
2018-08-04T03:32:58.274Z,77.35
2018-08-04T03:33:58.278Z,76.45
2018-08-04T03:34:58.282Z,76.95
2018-08-04T03:35:58.247Z,76.15
2018-08-04T03:36:58.243Z,76.04
2018-08-04T03:37:58.230Z,76.75
2018-08-04T03:38:58.298Z,76.54
2018-08-04T03:39:58.250Z,76.54
2018-08-04T03:40:58.185Z,76.34
2018-08-04T03:41:58.198Z,77.25
2018-08-04T03:42:58.165Z,77.25
2018-08-04T03:43:58.176Z,77.45
2018-08-04T03:44:58.151Z,76.45
2018-08-04T03:45:58.191Z,77.45
2018-08-04T03:46:58.132Z,77.25
2018-08-04T03:47:58.121Z,77.35
2018-08-04T03:48:58.116Z,76.65
2018-08-04T03:49:58.198Z,76.95
2018-08-04T03:50:58.112Z,77.35
2018-08-04T03:51:58.079Z,77.48
2018-08-04T03:52:58.076Z,77.45
2018-08-04T03:53:58.112Z,78.66
2018-08-04T03:54:58.036Z,77.69
2018-08-04T03:55:58.066Z,78.49
2018-08-04T03:56:58.015Z,78.69
2018-08-04T03:57:58.003Z,77.89
2018-08-04T03:58:57.993Z,77.89
2018-08-04T03:59:57.991Z,77.89
2018-08-04T04:00:57.986Z,77.79
2018-08-04T04:01:58.092Z,78.49
2018-08-04T04:02:57.965Z,77.79
2018-08-04T04:03:57.951Z,78.49
2018-08-04T04:04:57.931Z,79.39
2018-08-04T04:05:57.915Z,78.79
2018-08-04T04:06:57.964Z,77.15
2018-08-04T04:07:57.933Z,77.85
2018-08-04T04:08:57.938Z,78.45
2018-08-04T04:09:58.139Z,77.65
2018-08-04T04:10:57.862Z,78.05
2018-08-04T04:11:57.906Z,78.15
2018-08-04T04:12:57.852Z,78.45
2018-08-04T04:13:57.844Z,78.25
2018-08-04T04:14:57.915Z,77.85
2018-08-04T04:15:57.811Z,76.95
2018-08-04T04:16:57.836Z,76.95
2018-08-04T04:17:57.787Z,77.35
2018-08-04T04:18:57.796Z,77.55
2018-08-04T04:19:57.770Z,77.15
2018-08-04T04:20:57.787Z,77.69
2018-08-04T04:21:57.738Z,77.55
2018-08-04T04:22:57.764Z,79.36
2018-08-04T04:23:57.717Z,79.16
2018-08-04T04:24:57.708Z,78.55
2018-08-04T04:25:57.703Z,77.25
2018-08-04T04:26:57.687Z,77.85
2018-08-04T04:27:57.702Z,78.05
2018-08-04T04:28:57.733Z,78.75
2018-08-04T04:29:57.663Z,78.22
2018-08-04T04:30:57.642Z,79.16
2018-08-04T04:31:57.636Z,77.21
2018-08-04T04:32:57.668Z,78.52
2018-08-04T04:33:57.613Z,77.61
2018-08-04T04:34:57.610Z,77.61
2018-08-04T04:35:57.586Z,76.51
2018-08-04T04:36:57.600Z,78.72
2018-08-04T04:37:57.587Z,78.52
2018-08-04T04:38:57.578Z,77.41
2018-08-04T04:39:57.542Z,77.61
2018-08-04T04:40:57.533Z,76.37
2018-08-04T04:41:57.521Z,76.41
2018-08-04T04:42:57.515Z,75.81
2018-08-04T04:43:57.529Z,76.61
2018-08-04T04:44:57.530Z,76.51
2018-08-04T04:45:57.491Z,76.21
2018-08-04T04:46:57.477Z,77.28
2018-08-04T04:47:57.512Z,75.97
2018-08-04T04:48:57.513Z,75.77
2018-08-04T04:49:57.455Z,75.31
2018-08-04T04:50:57.424Z,75.60
2018-08-04T04:51:57.413Z,76.81
2018-08-04T04:52:57.417Z,76.41
2018-08-04T04:53:57.407Z,76.51
2018-08-04T04:54:57.407Z,77.28
2018-08-04T04:55:57.398Z,77.91
2018-08-04T04:56:57.373Z,78.08
2018-08-04T04:57:57.353Z,77.37
2018-08-04T04:58:57.414Z,77.58
2018-08-04T04:59:57.355Z,75.77
2018-08-04T05:00:57.334Z,76.47
2018-08-04T05:01:57.316Z,75.34
2018-08-04T05:02:57.299Z,75.67
2018-08-04T05:03:57.285Z,77.08
2018-08-04T05:04:57.304Z,75.87
2018-08-04T05:05:57.300Z,75.23
2018-08-04T05:06:57.268Z,74.73
2018-08-04T05:07:57.269Z,74.60
2018-08-04T05:08:57.260Z,75.00
2018-08-04T05:09:57.255Z,75.70
2018-08-04T05:10:57.208Z,74.30
2018-08-04T05:11:57.238Z,74.60
2018-08-04T05:12:57.202Z,75.20
2018-08-04T05:13:57.177Z,75.76
2018-08-04T05:14:57.165Z,75.96
2018-08-04T05:15:57.178Z,76.37
2018-08-04T05:16:57.181Z,75.30
2018-08-04T05:17:57.132Z,74.70
2018-08-04T05:18:57.147Z,75.76
2018-08-04T05:19:57.112Z,74.16
2018-08-04T05:20:57.185Z,74.06
2018-08-04T05:21:57.091Z,75.37
2018-08-04T05:22:57.080Z,73.46
2018-08-04T05:23:57.092Z,73.56
2018-08-04T05:24:57.057Z,75.52
2018-08-04T05:25:57.078Z,75.83
2018-08-04T05:26:57.038Z,72.13
2018-08-04T05:27:57.026Z,73.13
2018-08-04T05:28:57.013Z,73.33
2018-08-04T05:29:57.048Z,72.39
2018-08-04T05:30:57.027Z,71.23
2018-08-04T05:31:57.037Z,71.69
2018-08-04T05:32:56.972Z,73.49
2018-08-04T05:33:57.005Z,73.16
2018-08-04T05:34:56.950Z,71.06
2018-08-04T05:35:57.042Z,72.45
2018-08-04T05:36:56.928Z,70.76
2018-08-04T05:37:56.920Z,70.76
2018-08-04T05:38:56.909Z,70.03
2018-08-04T05:39:56.914Z,68.43
2018-08-04T05:40:56.887Z,67.53
2018-08-04T05:41:56.917Z,68.49
2018-08-04T05:42:56.864Z,67.19
2018-08-04T05:43:56.879Z,69.06
2018-08-04T05:44:56.870Z,66.27
2018-08-04T05:45:56.833Z,66.33
2018-08-04T05:46:56.910Z,66.53
2018-08-04T05:47:56.836Z,65.83
2018-08-04T05:48:56.801Z,66.30
2018-08-04T05:49:56.829Z,65.80
2018-08-04T05:50:56.779Z,65.17
2018-08-04T05:51:56.796Z,67.36
2018-08-04T05:52:56.760Z,65.54
2018-08-04T05:53:56.771Z,66.74
2018-08-04T05:54:56.749Z,64.04
2018-08-04T05:55:56.738Z,63.45
2018-08-04T05:56:56.752Z,62.92
2018-08-04T05:57:56.735Z,63.32
2018-08-04T05:58:56.696Z,62.62
2018-08-04T05:59:56.732Z,62.99
2018-08-04T06:00:56.678Z,62.89
2018-08-04T06:01:56.730Z,62.69
2018-08-04T06:02:56.673Z,62.79
2018-08-04T06:03:56.752Z,62.79
2018-08-04T06:04:56.630Z,61.77
2018-08-04T06:05:56.628Z,61.37
2018-08-04T06:06:56.779Z,61.96
2018-08-04T06:07:56.635Z,60.35
2018-08-04T06:08:56.651Z,61.04
2018-08-04T06:09:56.617Z,60.55
2018-08-04T06:10:56.568Z,60.44
2018-08-04T06:11:56.565Z,61.01
2018-08-04T06:12:56.675Z,62.01
2018-08-04T06:13:56.546Z,61.71
2018-08-04T06:14:56.573Z,59.12
2018-08-04T06:15:56.631Z,59.52
2018-08-04T06:16:56.518Z,59.52
2018-08-04T06:17:56.524Z,60.22
2018-08-04T06:18:56.574Z,60.12
2018-08-04T06:19:56.530Z,60.22
2018-08-04T06:20:56.471Z,60.42
2018-08-04T06:21:56.620Z,60.12
2018-08-04T06:22:56.576Z,60.22
2018-08-04T06:23:56.439Z,60.52
2018-08-04T06:24:56.432Z,59.79
2018-08-04T06:25:56.504Z,59.09
2018-08-04T06:26:56.466Z,58.60
2018-08-04T06:27:56.435Z,58.87
2018-08-04T06:28:56.473Z,59.27
2018-08-04T06:29:56.374Z,58.67
2018-08-04T06:30:56.432Z,58.57
2018-08-04T06:31:56.345Z,58.04
2018-08-04T06:32:56.354Z,58.74
2018-08-04T06:33:56.617Z,58.02
2018-08-04T06:34:56.349Z,57.79
2018-08-04T06:35:56.312Z,57.62
2018-08-04T06:36:56.304Z,57.72
2018-08-04T06:37:56.295Z,57.79
2018-08-04T06:38:56.358Z,56.30
2018-08-04T06:39:56.394Z,56.90
2018-08-04T06:40:56.257Z,57.40
2018-08-04T06:41:56.268Z,58.09
2018-08-04T06:42:56.234Z,57.79
2018-08-04T06:43:56.254Z,57.42
2018-08-04T06:44:56.249Z,57.92
2018-08-04T06:45:56.218Z,56.83
2018-08-04T06:46:56.364Z,57.72
2018-08-04T06:47:56.270Z,58.32
2018-08-04T06:48:56.256Z,58.32
2018-08-04T06:49:56.176Z,57.92
2018-08-04T06:50:56.152Z,58.84
2018-08-04T06:51:56.156Z,57.92
2018-08-04T06:52:56.212Z,58.32
2018-08-04T06:53:56.173Z,58.09
2018-08-04T06:54:56.132Z,57.46
2018-08-04T06:55:56.104Z,56.35
2018-08-04T06:56:56.100Z,56.32
2018-08-04T06:57:56.077Z,55.08
2018-08-04T06:58:56.298Z,55.68
2018-08-04T06:59:56.065Z,55.26
2018-08-04T07:00:56.075Z,53.18
2018-08-04T07:01:56.140Z,52.88
2018-08-04T07:02:56.151Z,52.36
2018-08-04T07:03:56.139Z,53.57
2018-08-04T07:04:56.022Z,54.46
2018-08-04T07:05:55.991Z,53.77
2018-08-04T07:06:55.984Z,55.38
2018-08-04T07:07:56.032Z,55.58
2018-08-04T07:08:55.964Z,55.75
2018-08-04T07:09:56.080Z,55.38
2018-08-04T07:10:55.965Z,53.57
2018-08-04T07:11:55.926Z,54.56
2018-08-04T07:12:55.934Z,54.51
2018-08-04T07:13:55.994Z,53.62
2018-08-04T07:14:55.921Z,51.94
2018-08-04T07:15:55.891Z,52.41
2018-08-04T07:16:55.908Z,51.50
2018-08-04T07:17:56.072Z,49.18
2018-08-04T07:18:55.853Z,49.82
2018-08-04T07:19:55.940Z,48.14
2018-08-04T07:20:56.091Z,47.66
2018-08-04T07:21:55.839Z,48.13
2018-08-04T07:22:55.975Z,47.71
2018-08-04T07:23:55.862Z,47.83
2018-08-04T07:24:55.887Z,48.94
2018-08-04T07:25:55.822Z,48.86
2018-08-04T07:26:55.773Z,48.91
2018-08-04T07:27:55.774Z,49.30
2018-08-04T07:28:55.907Z,49.92
2018-08-04T07:29:55.976Z,50.63
2018-08-04T07:30:55.822Z,51.37
2018-08-04T07:31:55.740Z,51.97
2018-08-04T07:32:55.742Z,52.06
2018-08-04T07:33:55.705Z,52.36
2018-08-04T07:34:55.716Z,52.56
2018-08-04T07:35:55.742Z,53.15
2018-08-04T07:36:55.723Z,53.55
2018-08-04T07:37:55.672Z,52.95
2018-08-04T07:38:55.649Z,51.87
2018-08-04T07:39:55.694Z,52.29
2018-08-04T07:40:55.665Z,52.69
2018-08-04T07:41:55.693Z,52.58
2018-08-04T07:42:55.631Z,52.69
2018-08-04T07:43:55.604Z,53.18
2018-08-04T07:44:55.588Z,53.77
2018-08-04T07:45:55.696Z,52.71
2018-08-04T07:46:55.586Z,53.08
2018-08-04T07:47:55.558Z,53.60
2018-08-04T07:48:55.654Z,53.92
2018-08-04T07:49:55.553Z,53.70
2018-08-04T07:50:55.544Z,54.29
2018-08-04T07:51:55.559Z,53.60
2018-08-04T07:52:55.521Z,54.69
2018-08-04T07:53:55.579Z,54.29
2018-08-04T07:54:55.491Z,53.38
2018-08-04T07:55:55.478Z,54.14
2018-08-04T07:56:55.647Z,53.25
2018-08-04T07:57:55.475Z,52.86
2018-08-04T07:58:55.486Z,52.78
2018-08-04T07:59:55.466Z,52.56
2018-08-04T08:00:55.525Z,53.33
2018-08-04T08:01:55.609Z,51.84
2018-08-04T08:02:55.396Z,52.14
2018-08-04T08:03:55.405Z,52.34
2018-08-04T08:04:55.476Z,51.54
2018-08-04T08:05:55.511Z,51.84
2018-08-04T08:06:55.397Z,52.36
2018-08-04T08:07:55.369Z,52.26
2018-08-04T08:08:55.350Z,52.66
2018-08-04T08:09:55.449Z,52.63
2018-08-04T08:10:55.431Z,52.21
2018-08-04T08:11:55.371Z,50.34
2018-08-04T08:12:55.373Z,51.52
2018-08-04T08:13:55.372Z,51.62
2018-08-04T08:14:55.365Z,50.54
2018-08-04T08:15:55.269Z,50.71
2018-08-04T08:16:55.265Z,50.12
2018-08-04T08:17:55.289Z,50.31
2018-08-04T08:18:55.275Z,49.92
2018-08-04T08:19:55.220Z,50.41
2018-08-04T08:20:55.439Z,51.07
2018-08-04T08:21:55.231Z,50.51
2018-08-04T08:22:55.220Z,50.31
2018-08-04T08:23:55.189Z,50.21
2018-08-04T08:24:55.179Z,50.29
2018-08-04T08:25:55.170Z,49.90
2018-08-04T08:26:55.153Z,50.31
2018-08-04T08:27:55.165Z,50.49
2018-08-04T08:28:55.191Z,50.29
2018-08-04T08:29:55.162Z,49.72
2018-08-04T08:30:55.201Z,50.41
2018-08-04T08:31:55.123Z,50.24
2018-08-04T08:32:55.203Z,51.62
2018-08-04T08:33:55.086Z,51.32
2018-08-04T08:34:55.121Z,52.24
2018-08-04T08:35:55.085Z,52.14
2018-08-04T08:36:55.104Z,53.33
2018-08-04T08:37:55.122Z,52.01
2018-08-04T08:38:55.119Z,51.82
2018-08-04T08:39:55.022Z,52.14
2018-08-04T08:40:55.020Z,51.64
2018-08-04T08:41:55.038Z,51.84
2018-08-04T08:42:54.985Z,52.34
2018-08-04T08:43:55.167Z,51.54
2018-08-04T08:44:54.962Z,51.64
2018-08-04T08:45:55.058Z,52.63
2018-08-04T08:46:55.049Z,52.34
2018-08-04T08:47:54.974Z,53.03
2018-08-04T08:48:54.951Z,52.04
2018-08-04T08:49:54.949Z,51.54
2018-08-04T08:50:54.909Z,52.01
2018-08-04T08:51:55.007Z,52.21
2018-08-04T08:52:54.905Z,52.19
2018-08-04T08:53:55.181Z,51.13
2018-08-04T08:54:54.929Z,51.52
2018-08-04T08:55:54.869Z,51.10
2018-08-04T08:56:54.903Z,51.20
2018-08-04T08:57:55.098Z,50.31
2018-08-04T08:58:54.817Z,51.20
2018-08-04T08:59:55.015Z,51.37
2018-08-04T09:00:54.800Z,50.59
2018-08-04T09:01:54.810Z,50.29
2018-08-04T09:02:54.837Z,50.66
2018-08-04T09:03:54.803Z,50.95
2018-08-04T09:04:54.904Z,51.25
2018-08-04T09:05:54.757Z,50.16
2018-08-04T09:06:54.751Z,49.87
2018-08-04T09:07:54.891Z,49.57
2018-08-04T09:08:54.778Z,49.28
2018-08-04T09:09:54.713Z,49.48
2018-08-04T09:10:54.852Z,49.77
2018-08-04T09:11:54.695Z,50.46
2018-08-04T09:12:54.738Z,49.08
2018-08-04T09:13:54.676Z,48.27
2018-08-04T09:14:54.663Z,48.49
2018-08-04T09:15:54.674Z,48.57
2018-08-04T09:16:54.753Z,49.16
2018-08-04T09:17:54.632Z,48.76
2018-08-04T09:18:54.716Z,48.07
2018-08-04T09:19:54.651Z,48.76
2018-08-04T09:20:54.628Z,48.14
2018-08-04T09:21:54.594Z,47.95
2018-08-04T09:22:54.661Z,47.53
2018-08-04T09:23:54.567Z,47.26
2018-08-04T09:24:54.563Z,47.24
2018-08-04T09:25:54.551Z,46.45
2018-08-04T09:26:54.568Z,47.53
2018-08-04T09:27:54.539Z,46.67
2018-08-04T09:28:54.524Z,47.66
2018-08-04T09:29:54.498Z,47.66
2018-08-04T09:30:54.555Z,46.35
2018-08-04T09:31:54.514Z,47.16
2018-08-04T09:32:54.471Z,47.46
2018-08-04T09:33:54.498Z,47.53
2018-08-04T09:34:54.468Z,47.14
2018-08-04T09:35:54.435Z,46.94
2018-08-04T09:36:54.472Z,46.75
2018-08-04T09:37:54.486Z,46.53
2018-08-04T09:38:54.412Z,45.84
2018-08-04T09:39:54.406Z,45.64
2018-08-04T09:40:54.414Z,46.53
2018-08-04T09:41:54.432Z,45.81
2018-08-04T09:42:54.364Z,45.32
2018-08-04T09:43:54.354Z,46.11
2018-08-04T09:44:54.345Z,45.45
2018-08-04T09:45:54.340Z,45.81
2018-08-04T09:46:54.336Z,46.60
2018-08-04T09:47:54.357Z,44.93
2018-08-04T09:48:54.319Z,45.32
2018-08-04T09:49:54.410Z,45.42
2018-08-04T09:50:54.335Z,45.40
2018-08-04T09:51:54.315Z,45.99
2018-08-04T09:52:54.317Z,44.91
2018-08-04T09:53:54.254Z,44.81
2018-08-04T09:54:54.241Z,44.91
2018-08-04T09:55:54.252Z,45.30
2018-08-04T09:56:54.225Z,44.91
2018-08-04T09:57:54.286Z,45.57
2018-08-04T09:58:54.209Z,44.69
2018-08-04T09:59:54.203Z,44.71
2018-08-04T10:00:54.204Z,44.42
2018-08-04T10:01:54.180Z,44.91
2018-08-04T10:02:54.164Z,44.30
2018-08-04T10:03:54.182Z,44.49
2018-08-04T10:04:54.248Z,45.09
2018-08-04T10:05:54.125Z,42.82
2018-08-04T10:06:54.165Z,44.20
2018-08-04T10:07:54.107Z,42.80
2018-08-04T10:08:54.157Z,42.63
2018-08-04T10:09:54.136Z,42.61
2018-08-04T10:10:54.309Z,43.29
2018-08-04T10:11:54.358Z,43.10
2018-08-04T10:12:54.119Z,42.61
2018-08-04T10:13:54.149Z,43.29
2018-08-04T10:14:54.064Z,42.80
2018-08-04T10:15:54.030Z,42.88
2018-08-04T10:16:54.022Z,42.41
2018-08-04T10:17:54.009Z,43.08
2018-08-04T10:18:54.005Z,42.98
2018-08-04T10:19:54.057Z,43.08
2018-08-04T10:20:53.985Z,41.11
2018-08-04T10:21:53.958Z,41.19
2018-08-04T10:22:53.955Z,42.27
2018-08-04T10:23:53.973Z,42.08
2018-08-04T10:24:53.964Z,41.39
2018-08-04T10:25:53.996Z,41.71
2018-08-04T10:26:54.025Z,42.37
2018-08-04T10:27:56.360Z,42.47
2018-08-04T10:28:53.890Z,42.96
2018-08-04T10:29:53.980Z,42.55
2018-08-04T10:30:55.886Z,42.25
2018-08-04T10:31:53.973Z,41.86
2018-08-04T10:32:53.848Z,41.35
2018-08-04T10:33:53.852Z,42.23
2018-08-04T10:34:53.896Z,40.88
2018-08-04T10:35:56.790Z,40.00
2018-08-04T10:36:54.057Z,40.76
2018-08-04T10:37:53.807Z,40.56
2018-08-04T10:38:53.787Z,39.22
2018-08-04T10:39:53.797Z,39.00
2018-08-04T10:40:53.800Z,40.27
2018-08-04T10:41:53.788Z,39.98
2018-08-04T10:42:54.238Z,40.08
2018-08-04T10:43:54.941Z,41.35
2018-08-04T10:44:54.739Z,40.08
2018-08-04T10:45:54.594Z,40.94
2018-08-04T10:46:53.773Z,41.35
2018-08-04T10:47:54.145Z,40.35
2018-08-04T10:48:53.681Z,40.16
2018-08-04T10:49:55.476Z,40.25
2018-08-04T10:50:54.323Z,39.07
2018-08-04T10:51:53.695Z,39.56
2018-08-04T10:52:53.642Z,39.66
2018-08-04T10:53:54.189Z,38.88
2018-08-04T10:54:53.632Z,38.88
2018-08-04T10:55:53.612Z,39.45
2018-08-04T10:56:53.621Z,39.35
2018-08-04T10:57:55.251Z,38.75
2018-08-04T10:58:53.580Z,38.57
2018-08-04T10:59:53.571Z,38.55
2018-08-04T11:00:53.714Z,38.45
2018-08-04T11:01:55.292Z,38.35
2018-08-04T11:02:53.804Z,37.57
2018-08-04T11:03:53.582Z,37.79
2018-08-04T11:04:55.237Z,37.47
2018-08-04T11:05:53.513Z,37.87
2018-08-04T11:06:55.264Z,37.47
2018-08-04T11:07:53.611Z,38.35
2018-08-04T11:08:53.602Z,37.19
2018-08-04T11:09:55.554Z,38.65
2018-08-04T11:10:53.639Z,37.08
2018-08-04T11:11:53.973Z,38.16
2018-08-04T11:12:59.559Z,37.27
2018-08-04T11:13:53.555Z,36.20
2018-08-04T11:14:59.816Z,37.47
2018-08-04T11:15:54.501Z,36.57
2018-08-04T11:17:04.194Z,36.65
2018-08-04T11:17:54.749Z,35.25
2018-08-04T11:18:53.918Z,33.73
2018-08-04T11:19:54.650Z,33.49
2018-08-04T11:20:53.501Z,32.17
2018-08-04T11:21:53.365Z,29.91
2018-08-04T11:22:53.477Z,29.52
2018-08-04T11:23:53.366Z,28.94
2018-08-04T11:24:55.851Z,29.04
2018-08-04T11:25:53.434Z,28.94
2018-08-04T11:26:53.652Z,28.75
2018-08-04T11:27:53.292Z,28.45
2018-08-04T11:28:53.292Z,28.14
2018-08-04T11:29:56.175Z,27.83
2018-08-04T11:30:53.299Z,27.42
2018-08-04T11:31:53.285Z,26.35
2018-08-04T11:32:53.416Z,26.62
2018-08-04T11:33:53.293Z,25.83
2018-08-04T11:34:53.600Z,25.26
2018-08-04T11:35:53.437Z,25.05
2018-08-04T11:36:53.951Z,25.65
2018-08-04T11:37:53.207Z,25.07
2018-08-04T11:38:54.729Z,25.52
2018-08-04T11:39:54.439Z,25.34
2018-08-04T11:40:53.320Z,25.21
2018-08-04T11:41:54.682Z,25.10
2018-08-04T11:42:53.165Z,25.28
2018-08-04T11:43:55.420Z,24.50
2018-08-04T11:44:53.202Z,23.72
2018-08-04T11:45:53.180Z,23.14
2018-08-04T11:46:53.152Z,23.99
2018-08-04T11:47:53.745Z,23.33
2018-08-04T11:48:53.856Z,23.34
2018-08-04T11:49:53.203Z,23.24
2018-08-04T11:50:53.279Z,22.38
2018-08-04T11:51:53.269Z,22.66
2018-08-04T11:52:53.086Z,23.72
2018-08-04T11:53:53.153Z,23.65
2018-08-04T11:54:53.229Z,23.16
2018-08-04T11:55:53.249Z,22.67
2018-08-04T11:56:56.794Z,23.24
2018-08-04T11:57:53.046Z,22.75
2018-08-04T11:58:53.035Z,22.63
2018-08-04T11:59:56.251Z,22.64
2018-08-04T12:00:58.789Z,23.41
2018-08-04T12:01:53.580Z,22.84
2018-08-04T12:02:53.041Z,22.45
2018-08-04T12:03:53.034Z,21.96
2018-08-04T12:04:53.782Z,22.36
2018-08-04T12:05:56.102Z,22.45
2018-08-04T12:06:56.982Z,21.59
2018-08-04T12:07:52.971Z,21.89
2018-08-04T12:08:52.959Z,22.85
2018-08-04T12:09:52.967Z,22.86
2018-08-04T12:10:52.944Z,22.36
2018-08-04T12:11:52.979Z,22.64
2018-08-04T12:12:52.926Z,22.14
2018-08-04T12:13:53.010Z,20.12
2018-08-04T12:14:52.914Z,20.29
2018-08-04T12:15:53.008Z,19.93
2018-08-04T12:16:52.971Z,19.57
2018-08-04T12:17:52.893Z,20.34
2018-08-04T12:18:52.886Z,20.35
2018-08-04T12:19:52.904Z,21.59
2018-08-04T12:20:52.865Z,19.86
2018-08-04T12:21:52.893Z,20.43
2018-08-04T12:22:52.858Z,21.01
2018-08-04T12:23:52.852Z,21.03
2018-08-04T12:24:52.848Z,21.33
2018-08-04T12:25:52.844Z,21.31
2018-08-04T12:26:52.859Z,21.33
2018-08-04T12:27:52.841Z,20.45
2018-08-04T12:28:52.903Z,21.22
2018-08-04T12:29:52.811Z,20.43
2018-08-04T12:30:52.824Z,21.38
2018-08-04T12:31:52.817Z,20.80
2018-08-04T12:32:52.776Z,19.74
2018-08-04T12:33:52.782Z,20.05
2018-08-04T12:34:52.762Z,21.59
2018-08-04T12:35:52.754Z,19.98
2018-08-04T12:36:52.769Z,20.64
2018-08-04T12:37:52.741Z,20.28
2018-08-04T12:38:52.744Z,21.62
2018-08-04T12:39:52.746Z,20.66
2018-08-04T12:40:52.737Z,19.96
2018-08-04T12:41:52.769Z,21.68
2018-08-04T12:42:52.691Z,20.14
2018-08-04T12:43:52.694Z,20.25
2018-08-04T12:44:52.687Z,20.64
2018-08-04T12:45:52.693Z,20.17
2018-08-04T12:46:52.657Z,19.60
2018-08-04T12:47:52.678Z,21.55
2018-08-04T12:48:52.654Z,21.27
2018-08-04T12:49:52.755Z,21.85
2018-08-04T12:50:52.643Z,21.78
2018-08-04T12:51:52.659Z,22.17